sensor_id;sensor_type;location;lat;lon;timestamp;P1;durP1;ratioP1;P2;durP2;ratioP2
21101;SDS011;10709;49.006;12.100;2023-08-07T00:02:10;1.13;;;0.90;;
21101;SDS011;10709;49.006;12.100;2023-08-07T00:04:36;0.67;;;0.67;;
21101;SDS011;10709;49.006;12.100;2023-08-07T00:07:03;1.63;;;0.87;;
21101;SDS011;10709;49.006;12.100;2023-08-07T00:09:30;1.50;;;1.00;;
21101;SDS011;10709;49.006;12.100;2023-08-07T00:11:58;1.70;;;0.80;;
21101;SDS011;10709;49.006;12.100;2023-08-07T00:14:24;2.17;;;0.80;;
21101;SDS011;10709;49.006;12.100;2023-08-07T00:16:51;1.53;;;0.97;;
21101;SDS011;10709;49.006;12.100;2023-08-07T00:19:21;1.00;;;0.90;;
21101;SDS011;10709;49.006;12.100;2023-08-07T00:21:47;1.07;;;0.90;;
21101;SDS011;10709;49.006;12.100;2023-08-07T00:24:14;0.77;;;0.70;;
21101;SDS011;10709;49.006;12.100;2023-08-07T00:26:41;0.70;;;0.70;;
21101;SDS011;10709;49.006;12.100;2023-08-07T00:29:07;3.37;;;0.70;;
21101;SDS011;10709;49.006;12.100;2023-08-07T00:31:34;0.60;;;0.60;;
21101;SDS011;10709;49.006;12.100;2023-08-07T00:34:00;1.33;;;0.70;;
21101;SDS011;10709;49.006;12.100;2023-08-07T00:36:28;1.87;;;0.87;;
21101;SDS011;10709;49.006;12.100;2023-08-07T00:38:55;0.73;;;0.60;;
21101;SDS011;10709;49.006;12.100;2023-08-07T00:41:22;0.60;;;0.60;;
21101;SDS011;10709;49.006;12.100;2023-08-07T00:43:48;0.60;;;0.60;;
21101;SDS011;10709;49.006;12.100;2023-08-07T00:46:15;1.53;;;0.60;;
21101;SDS011;10709;49.006;12.100;2023-08-07T00:48:42;0.87;;;0.50;;
21101;SDS011;10709;49.006;12.100;2023-08-07T00:51:08;1.43;;;0.70;;
21101;SDS011;10709;49.006;12.100;2023-08-07T00:53:37;2.90;;;0.60;;
21101;SDS011;10709;49.006;12.100;2023-08-07T00:56:04;0.53;;;0.50;;
21101;SDS011;10709;49.006;12.100;2023-08-07T00:58:32;0.50;;;0.50;;
21101;SDS011;10709;49.006;12.100;2023-08-07T01:00:58;0.60;;;0.60;;
21101;SDS011;10709;49.006;12.100;2023-08-07T01:03:25;0.53;;;0.53;;
21101;SDS011;10709;49.006;12.100;2023-08-07T01:05:52;0.50;;;0.50;;
21101;SDS011;10709;49.006;12.100;2023-08-07T01:08:20;1.40;;;0.50;;
21101;SDS011;10709;49.006;12.100;2023-08-07T01:13:37;0.37;;;0.37;;
21101;SDS011;10709;49.006;12.100;2023-08-07T01:16:26;0.60;;;0.40;;
21101;SDS011;10709;49.006;12.100;2023-08-07T01:19:04;0.30;;;0.30;;
21101;SDS011;10709;49.006;12.100;2023-08-07T01:21:44;0.40;;;0.40;;
21101;SDS011;10709;49.006;12.100;2023-08-07T01:24:14;0.63;;;0.40;;
21101;SDS011;10709;49.006;12.100;2023-08-07T01:26:42;1.33;;;0.40;;
21101;SDS011;10709;49.006;12.100;2023-08-07T01:29:15;0.40;;;0.40;;
21101;SDS011;10709;49.006;12.100;2023-08-07T01:31:49;0.77;;;0.30;;
21101;SDS011;10709;49.006;12.100;2023-08-07T01:34:19;0.37;;;0.37;;
21101;SDS011;10709;49.006;12.100;2023-08-07T01:36:50;0.50;;;0.40;;
21101;SDS011;10709;49.006;12.100;2023-08-07T01:39:18;0.30;;;0.30;;
21101;SDS011;10709;49.006;12.100;2023-08-07T01:41:46;0.30;;;0.30;;
21101;SDS011;10709;49.006;12.100;2023-08-07T01:44:13;0.53;;;0.30;;
21101;SDS011;10709;49.006;12.100;2023-08-07T01:46:39;0.30;;;0.30;;
21101;SDS011;10709;49.006;12.100;2023-08-07T01:49:07;1.47;;;0.40;;
21101;SDS011;10709;49.006;12.100;2023-08-07T01:51:33;1.67;;;0.43;;
21101;SDS011;10709;49.006;12.100;2023-08-07T01:54:00;0.87;;;0.30;;
21101;SDS011;10709;49.006;12.100;2023-08-07T01:56:26;0.20;;;0.20;;
21101;SDS011;10709;49.006;12.100;2023-08-07T01:58:53;0.57;;;0.40;;
21101;SDS011;10709;49.006;12.100;2023-08-07T02:01:20;0.20;;;0.20;;
21101;SDS011;10709;49.006;12.100;2023-08-07T02:03:46;0.33;;;0.33;;
21101;SDS011;10709;49.006;12.100;2023-08-07T02:06:13;0.57;;;0.30;;
21101;SDS011;10709;49.006;12.100;2023-08-07T02:08:40;0.40;;;0.30;;
21101;SDS011;10709;49.006;12.100;2023-08-07T02:11:06;0.40;;;0.40;;
21101;SDS011;10709;49.006;12.100;2023-08-07T02:13:33;0.20;;;0.20;;
21101;SDS011;10709;49.006;12.100;2023-08-07T02:15:59;0.43;;;0.40;;
21101;SDS011;10709;49.006;12.100;2023-08-07T02:18:26;0.53;;;0.40;;
21101;SDS011;10709;49.006;12.100;2023-08-07T02:20:52;0.77;;;0.40;;
21101;SDS011;10709;49.006;12.100;2023-08-07T02:23:19;1.40;;;0.40;;
21101;SDS011;10709;49.006;12.100;2023-08-07T02:25:45;1.23;;;0.30;;
21101;SDS011;10709;49.006;12.100;2023-08-07T02:28:12;1.37;;;0.30;;
21101;SDS011;10709;49.006;12.100;2023-08-07T02:30:39;0.30;;;0.30;;
21101;SDS011;10709;49.006;12.100;2023-08-07T02:33:06;0.23;;;0.23;;
21101;SDS011;10709;49.006;12.100;2023-08-07T02:35:32;1.10;;;0.30;;
21101;SDS011;10709;49.006;12.100;2023-08-07T02:37:59;0.30;;;0.30;;
21101;SDS011;10709;49.006;12.100;2023-08-07T02:40:25;1.00;;;0.40;;
21101;SDS011;10709;49.006;12.100;2023-08-07T02:42:53;0.60;;;0.30;;
21101;SDS011;10709;49.006;12.100;2023-08-07T02:45:19;1.00;;;0.70;;
21101;SDS011;10709;49.006;12.100;2023-08-07T02:47:46;0.80;;;0.50;;
21101;SDS011;10709;49.006;12.100;2023-08-07T02:50:13;0.93;;;0.50;;
21101;SDS011;10709;49.006;12.100;2023-08-07T02:52:39;1.70;;;0.40;;
21101;SDS011;10709;49.006;12.100;2023-08-07T02:55:10;1.30;;;0.30;;
21101;SDS011;10709;49.006;12.100;2023-08-07T02:57:37;0.70;;;0.40;;
21101;SDS011;10709;49.006;12.100;2023-08-07T03:00:04;0.50;;;0.43;;
21101;SDS011;10709;49.006;12.100;2023-08-07T03:02:31;0.90;;;0.40;;
21101;SDS011;10709;49.006;12.100;2023-08-07T03:04:58;0.40;;;0.40;;
21101;SDS011;10709;49.006;12.100;2023-08-07T03:07:25;0.40;;;0.40;;
21101;SDS011;10709;49.006;12.100;2023-08-07T03:09:51;0.83;;;0.30;;
21101;SDS011;10709;49.006;12.100;2023-08-07T03:12:18;0.40;;;0.40;;
21101;SDS011;10709;49.006;12.100;2023-08-07T03:14:44;0.67;;;0.50;;
21101;SDS011;10709;49.006;12.100;2023-08-07T03:17:11;0.50;;;0.50;;
21101;SDS011;10709;49.006;12.100;2023-08-07T03:19:39;1.77;;;0.43;;
21101;SDS011;10709;49.006;12.100;2023-08-07T03:22:08;0.40;;;0.40;;
21101;SDS011;10709;49.006;12.100;2023-08-07T03:24:35;1.63;;;0.50;;
21101;SDS011;10709;49.006;12.100;2023-08-07T03:27:02;1.47;;;0.40;;
21101;SDS011;10709;49.006;12.100;2023-08-07T03:29:28;0.40;;;0.40;;
21101;SDS011;10709;49.006;12.100;2023-08-07T03:31:55;1.23;;;0.40;;
21101;SDS011;10709;49.006;12.100;2023-08-07T03:34:22;0.70;;;0.50;;
21101;SDS011;10709;49.006;12.100;2023-08-07T03:36:48;1.53;;;0.50;;
21101;SDS011;10709;49.006;12.100;2023-08-07T03:39:15;3.17;;;0.60;;
21101;SDS011;10709;49.006;12.100;2023-08-07T03:41:41;0.40;;;0.40;;
21101;SDS011;10709;49.006;12.100;2023-08-07T03:44:08;0.50;;;0.50;;
21101;SDS011;10709;49.006;12.100;2023-08-07T03:46:35;0.50;;;0.50;;
21101;SDS011;10709;49.006;12.100;2023-08-07T03:49:02;0.50;;;0.50;;
21101;SDS011;10709;49.006;12.100;2023-08-07T03:51:28;1.43;;;0.50;;
21101;SDS011;10709;49.006;12.100;2023-08-07T03:53:56;0.83;;;0.60;;
21101;SDS011;10709;49.006;12.100;2023-08-07T03:56:23;0.60;;;0.53;;
21101;SDS011;10709;49.006;12.100;2023-08-07T03:58:49;0.50;;;0.50;;
21101;SDS011;10709;49.006;12.100;2023-08-07T04:01:16;0.93;;;0.60;;
21101;SDS011;10709;49.006;12.100;2023-08-07T04:03:46;1.30;;;0.57;;
21101;SDS011;10709;49.006;12.100;2023-08-07T04:06:14;0.87;;;0.50;;
21101;SDS011;10709;49.006;12.100;2023-08-07T04:08:44;1.00;;;0.60;;
21101;SDS011;10709;49.006;12.100;2023-08-07T04:11:11;0.60;;;0.60;;
21101;SDS011;10709;49.006;12.100;2023-08-07T04:13:38;1.37;;;0.70;;
21101;SDS011;10709;49.006;12.100;2023-08-07T04:16:05;1.83;;;0.70;;
21101;SDS011;10709;49.006;12.100;2023-08-07T04:18:32;3.77;;;0.80;;
21101;SDS011;10709;49.006;12.100;2023-08-07T04:21:00;1.20;;;0.70;;
21101;SDS011;10709;49.006;12.100;2023-08-07T04:23:26;1.57;;;0.80;;
21101;SDS011;10709;49.006;12.100;2023-08-07T04:25:53;2.40;;;0.60;;
21101;SDS011;10709;49.006;12.100;2023-08-07T04:28:20;1.60;;;0.70;;
21101;SDS011;10709;49.006;12.100;2023-08-07T04:30:50;2.10;;;0.80;;
21101;SDS011;10709;49.006;12.100;2023-08-07T04:33:18;0.93;;;0.60;;
21101;SDS011;10709;49.006;12.100;2023-08-07T04:35:46;2.03;;;0.70;;
21101;SDS011;10709;49.006;12.100;2023-08-07T04:38:14;1.57;;;0.80;;
21101;SDS011;10709;49.006;12.100;2023-08-07T04:40:47;1.47;;;0.60;;
21101;SDS011;10709;49.006;12.100;2023-08-07T04:43:15;1.47;;;1.23;;
21101;SDS011;10709;49.006;12.100;2023-08-07T04:45:45;1.87;;;0.80;;
21101;SDS011;10709;49.006;12.100;2023-08-07T04:48:12;1.83;;;0.90;;
21101;SDS011;10709;49.006;12.100;2023-08-07T04:50:40;2.33;;;0.80;;
21101;SDS011;10709;49.006;12.100;2023-08-07T04:53:07;1.53;;;0.80;;
21101;SDS011;10709;49.006;12.100;2023-08-07T04:55:34;3.17;;;0.90;;
21101;SDS011;10709;49.006;12.100;2023-08-07T04:58:01;1.27;;;0.87;;
21101;SDS011;10709;49.006;12.100;2023-08-07T05:00:27;1.63;;;0.90;;
21101;SDS011;10709;49.006;12.100;2023-08-07T05:02:55;1.17;;;0.80;;
21101;SDS011;10709;49.006;12.100;2023-08-07T05:05:22;1.03;;;0.70;;
21101;SDS011;10709;49.006;12.100;2023-08-07T05:07:50;1.27;;;0.80;;
21101;SDS011;10709;49.006;12.100;2023-08-07T05:10:16;0.97;;;0.80;;
21101;SDS011;10709;49.006;12.100;2023-08-07T05:12:43;0.80;;;0.80;;
21101;SDS011;10709;49.006;12.100;2023-08-07T05:15:09;1.83;;;1.03;;
21101;SDS011;10709;49.006;12.100;2023-08-07T05:17:37;2.53;;;0.90;;
21101;SDS011;10709;49.006;12.100;2023-08-07T05:20:04;1.00;;;0.80;;
21101;SDS011;10709;49.006;12.100;2023-08-07T05:22:32;1.63;;;1.00;;
21101;SDS011;10709;49.006;12.100;2023-08-07T05:24:59;1.57;;;1.00;;
21101;SDS011;10709;49.006;12.100;2023-08-07T05:27:25;1.50;;;0.90;;
21101;SDS011;10709;49.006;12.100;2023-08-07T05:29:52;1.80;;;0.90;;
21101;SDS011;10709;49.006;12.100;2023-08-07T05:32:19;1.43;;;0.70;;
21101;SDS011;10709;49.006;12.100;2023-08-07T05:34:46;1.80;;;0.77;;
21101;SDS011;10709;49.006;12.100;2023-08-07T05:37:13;1.40;;;1.00;;
21101;SDS011;10709;49.006;12.100;2023-08-07T05:39:40;1.23;;;0.93;;
21101;SDS011;10709;49.006;12.100;2023-08-07T05:42:08;1.30;;;0.73;;
21101;SDS011;10709;49.006;12.100;2023-08-07T05:44:37;2.80;;;1.00;;
21101;SDS011;10709;49.006;12.100;2023-08-07T05:47:04;1.43;;;0.80;;
21101;SDS011;10709;49.006;12.100;2023-08-07T05:49:31;1.40;;;0.80;;
21101;SDS011;10709;49.006;12.100;2023-08-07T05:51:57;0.70;;;0.70;;
21101;SDS011;10709;49.006;12.100;2023-08-07T05:54:24;2.70;;;0.90;;
21101;SDS011;10709;49.006;12.100;2023-08-07T05:56:51;1.23;;;0.70;;
21101;SDS011;10709;49.006;12.100;2023-08-07T05:59:17;1.53;;;0.70;;
21101;SDS011;10709;49.006;12.100;2023-08-07T06:01:46;1.23;;;0.70;;
21101;SDS011;10709;49.006;12.100;2023-08-07T06:04:13;0.90;;;0.80;;
21101;SDS011;10709;49.006;12.100;2023-08-07T06:06:40;1.60;;;0.80;;
21101;SDS011;10709;49.006;12.100;2023-08-07T06:09:09;2.67;;;1.00;;
21101;SDS011;10709;49.006;12.100;2023-08-07T06:11:35;0.63;;;0.60;;
21101;SDS011;10709;49.006;12.100;2023-08-07T06:14:02;1.10;;;0.77;;
21101;SDS011;10709;49.006;12.100;2023-08-07T06:16:30;1.30;;;0.70;;
21101;SDS011;10709;49.006;12.100;2023-08-07T06:18:57;2.07;;;0.80;;
21101;SDS011;10709;49.006;12.100;2023-08-07T06:21:25;1.33;;;0.80;;
21101;SDS011;10709;49.006;12.100;2023-08-07T06:23:51;1.00;;;0.80;;
21101;SDS011;10709;49.006;12.100;2023-08-07T06:26:18;1.13;;;0.80;;
21101;SDS011;10709;49.006;12.100;2023-08-07T06:28:47;1.60;;;1.00;;
21101;SDS011;10709;49.006;12.100;2023-08-07T06:31:15;1.37;;;0.90;;
21101;SDS011;10709;49.006;12.100;2023-08-07T06:33:42;1.30;;;0.90;;
21101;SDS011;10709;49.006;12.100;2023-08-07T06:36:09;1.03;;;0.73;;
21101;SDS011;10709;49.006;12.100;2023-08-07T06:38:38;1.03;;;0.87;;
21101;SDS011;10709;49.006;12.100;2023-08-07T06:41:05;1.27;;;1.00;;
21101;SDS011;10709;49.006;12.100;2023-08-07T06:43:32;1.87;;;0.90;;
21101;SDS011;10709;49.006;12.100;2023-08-07T06:46:00;1.87;;;0.80;;
21101;SDS011;10709;49.006;12.100;2023-08-07T06:48:27;1.03;;;0.87;;
21101;SDS011;10709;49.006;12.100;2023-08-07T06:50:55;0.97;;;0.80;;
21101;SDS011;10709;49.006;12.100;2023-08-07T06:53:22;1.50;;;1.07;;
21101;SDS011;10709;49.006;12.100;2023-08-07T06:55:48;1.43;;;0.90;;
21101;SDS011;10709;49.006;12.100;2023-08-07T06:58:15;2.37;;;1.13;;
21101;SDS011;10709;49.006;12.100;2023-08-07T07:00:42;6.00;;;1.10;;
21101;SDS011;10709;49.006;12.100;2023-08-07T07:03:08;1.53;;;1.13;;
21101;SDS011;10709;49.006;12.100;2023-08-07T07:05:36;2.77;;;1.10;;
21101;SDS011;10709;49.006;12.100;2023-08-07T07:08:03;2.93;;;1.00;;
21101;SDS011;10709;49.006;12.100;2023-08-07T07:10:30;1.60;;;1.00;;
21101;SDS011;10709;49.006;12.100;2023-08-07T07:12:57;2.80;;;1.17;;
21101;SDS011;10709;49.006;12.100;2023-08-07T07:15:24;1.60;;;1.20;;
21101;SDS011;10709;49.006;12.100;2023-08-07T07:17:51;2.63;;;1.10;;
21101;SDS011;10709;49.006;12.100;2023-08-07T07:20:18;1.97;;;1.20;;
21101;SDS011;10709;49.006;12.100;2023-08-07T07:22:46;2.37;;;1.30;;
21101;SDS011;10709;49.006;12.100;2023-08-07T07:25:12;1.43;;;1.13;;
21101;SDS011;10709;49.006;12.100;2023-08-07T07:27:39;2.03;;;1.00;;
21101;SDS011;10709;49.006;12.100;2023-08-07T07:30:06;1.10;;;1.00;;
21101;SDS011;10709;49.006;12.100;2023-08-07T07:32:34;2.17;;;1.20;;
21101;SDS011;10709;49.006;12.100;2023-08-07T07:35:01;2.03;;;1.20;;
21101;SDS011;10709;49.006;12.100;2023-08-07T07:37:27;2.47;;;1.27;;
21101;SDS011;10709;49.006;12.100;2023-08-07T07:39:54;1.90;;;1.20;;
21101;SDS011;10709;49.006;12.100;2023-08-07T07:42:21;2.70;;;1.40;;
21101;SDS011;10709;49.006;12.100;2023-08-07T07:44:47;2.83;;;1.30;;
21101;SDS011;10709;49.006;12.100;2023-08-07T07:47:14;1.60;;;1.10;;
21101;SDS011;10709;49.006;12.100;2023-08-07T07:49:45;2.10;;;1.27;;
21101;SDS011;10709;49.006;12.100;2023-08-07T07:52:14;1.53;;;1.20;;
21101;SDS011;10709;49.006;12.100;2023-08-07T07:54:41;1.23;;;1.13;;
21101;SDS011;10709;49.006;12.100;2023-08-07T07:57:08;1.30;;;1.10;;
21101;SDS011;10709;49.006;12.100;2023-08-07T07:59:35;1.30;;;1.13;;
21101;SDS011;10709;49.006;12.100;2023-08-07T08:02:01;1.90;;;1.23;;
21101;SDS011;10709;49.006;12.100;2023-08-07T08:04:30;1.77;;;1.10;;
21101;SDS011;10709;49.006;12.100;2023-08-07T08:06:58;1.33;;;1.17;;
21101;SDS011;10709;49.006;12.100;2023-08-07T08:09:28;2.47;;;1.17;;
21101;SDS011;10709;49.006;12.100;2023-08-07T08:11:54;1.67;;;1.20;;
21101;SDS011;10709;49.006;12.100;2023-08-07T08:14:21;1.60;;;0.90;;
21101;SDS011;10709;49.006;12.100;2023-08-07T08:16:48;2.93;;;1.00;;
21101;SDS011;10709;49.006;12.100;2023-08-07T08:19:16;2.50;;;1.13;;
21101;SDS011;10709;49.006;12.100;2023-08-07T08:21:42;1.97;;;1.10;;
21101;SDS011;10709;49.006;12.100;2023-08-07T08:24:09;1.10;;;1.00;;
21101;SDS011;10709;49.006;12.100;2023-08-07T08:26:36;0.93;;;0.80;;
21101;SDS011;10709;49.006;12.100;2023-08-07T08:29:05;1.60;;;1.00;;
21101;SDS011;10709;49.006;12.100;2023-08-07T08:31:32;0.97;;;0.90;;
21101;SDS011;10709;49.006;12.100;2023-08-07T08:33:59;2.63;;;1.00;;
21101;SDS011;10709;49.006;12.100;2023-08-07T08:36:25;1.37;;;0.83;;
21101;SDS011;10709;49.006;12.100;2023-08-07T08:38:52;1.10;;;1.00;;
21101;SDS011;10709;49.006;12.100;2023-08-07T08:41:19;3.17;;;1.00;;
21101;SDS011;10709;49.006;12.100;2023-08-07T08:43:47;1.40;;;0.97;;
21101;SDS011;10709;49.006;12.100;2023-08-07T08:46:18;1.77;;;0.90;;
21101;SDS011;10709;49.006;12.100;2023-08-07T08:48:47;2.37;;;1.00;;
21101;SDS011;10709;49.006;12.100;2023-08-07T08:51:17;2.43;;;1.00;;
21101;SDS011;10709;49.006;12.100;2023-08-07T08:53:48;1.63;;;0.90;;
21101;SDS011;10709;49.006;12.100;2023-08-07T08:56:16;1.83;;;1.00;;
21101;SDS011;10709;49.006;12.100;2023-08-07T08:58:43;1.83;;;0.93;;
21101;SDS011;10709;49.006;12.100;2023-08-07T09:01:10;1.17;;;1.00;;
21101;SDS011;10709;49.006;12.100;2023-08-07T09:03:38;1.20;;;1.10;;
21101;SDS011;10709;49.006;12.100;2023-08-07T09:06:06;2.13;;;0.90;;
21101;SDS011;10709;49.006;12.100;2023-08-07T09:08:33;1.00;;;0.90;;
21101;SDS011;10709;49.006;12.100;2023-08-07T09:11:01;2.27;;;1.33;;
21101;SDS011;10709;49.006;12.100;2023-08-07T09:13:32;1.37;;;0.97;;
21101;SDS011;10709;49.006;12.100;2023-08-07T09:16:00;3.50;;;1.23;;
21101;SDS011;10709;49.006;12.100;2023-08-07T09:18:28;1.87;;;1.17;;
21101;SDS011;10709;49.006;12.100;2023-08-07T09:20:55;1.67;;;1.20;;
21101;SDS011;10709;49.006;12.100;2023-08-07T09:23:23;2.43;;;1.30;;
21101;SDS011;10709;49.006;12.100;2023-08-07T09:26:03;2.20;;;1.20;;
21101;SDS011;10709;49.006;12.100;2023-08-07T09:28:31;2.03;;;1.30;;
21101;SDS011;10709;49.006;12.100;2023-08-07T09:30:59;1.77;;;1.30;;
21101;SDS011;10709;49.006;12.100;2023-08-07T09:33:29;1.53;;;1.23;;
21101;SDS011;10709;49.006;12.100;2023-08-07T09:35:57;2.43;;;1.20;;
21101;SDS011;10709;49.006;12.100;2023-08-07T09:38:27;2.47;;;1.50;;
21101;SDS011;10709;49.006;12.100;2023-08-07T09:40:59;2.07;;;1.40;;
21101;SDS011;10709;49.006;12.100;2023-08-07T09:43:29;2.67;;;1.50;;
21101;SDS011;10709;49.006;12.100;2023-08-07T09:46:05;2.37;;;1.43;;
21101;SDS011;10709;49.006;12.100;2023-08-07T09:48:38;2.70;;;1.60;;
21101;SDS011;10709;49.006;12.100;2023-08-07T09:51:10;4.40;;;1.80;;
21101;SDS011;10709;49.006;12.100;2023-08-07T09:53:37;2.43;;;1.60;;
21101;SDS011;10709;49.006;12.100;2023-08-07T09:56:04;3.50;;;1.80;;
21101;SDS011;10709;49.006;12.100;2023-08-07T09:58:32;2.20;;;1.70;;
21101;SDS011;10709;49.006;12.100;2023-08-07T10:00:59;4.27;;;1.93;;
21101;SDS011;10709;49.006;12.100;2023-08-07T10:03:31;2.97;;;1.70;;
21101;SDS011;10709;49.006;12.100;2023-08-07T10:05:58;4.07;;;1.80;;
21101;SDS011;10709;49.006;12.100;2023-08-07T10:08:25;5.60;;;2.60;;
21101;SDS011;10709;49.006;12.100;2023-08-07T10:10:54;3.47;;;1.80;;
21101;SDS011;10709;49.006;12.100;2023-08-07T10:13:26;3.33;;;2.00;;
21101;SDS011;10709;49.006;12.100;2023-08-07T10:16:04;3.37;;;1.90;;
21101;SDS011;10709;49.006;12.100;2023-08-07T10:18:33;4.17;;;2.10;;
21101;SDS011;10709;49.006;12.100;2023-08-07T10:21:01;6.07;;;1.80;;
21101;SDS011;10709;49.006;12.100;2023-08-07T10:23:28;2.63;;;1.90;;
21101;SDS011;10709;49.006;12.100;2023-08-07T10:25:55;3.47;;;1.90;;
21101;SDS011;10709;49.006;12.100;2023-08-07T10:28:23;3.07;;;2.00;;
21101;SDS011;10709;49.006;12.100;2023-08-07T10:30:54;3.13;;;1.90;;
21101;SDS011;10709;49.006;12.100;2023-08-07T10:33:22;4.77;;;1.90;;
21101;SDS011;10709;49.006;12.100;2023-08-07T10:35:51;2.67;;;1.90;;
21101;SDS011;10709;49.006;12.100;2023-08-07T10:38:19;3.03;;;1.80;;
21101;SDS011;10709;49.006;12.100;2023-08-07T10:43:42;2.93;;;2.00;;
21101;SDS011;10709;49.006;12.100;2023-08-07T10:46:19;3.67;;;2.07;;
21101;SDS011;10709;49.006;12.100;2023-08-07T10:48:54;3.80;;;1.80;;
21101;SDS011;10709;49.006;12.100;2023-08-07T10:51:27;2.50;;;1.57;;
21101;SDS011;10709;49.006;12.100;2023-08-07T10:53:58;2.27;;;1.60;;
21101;SDS011;10709;49.006;12.100;2023-08-07T10:56:31;3.40;;;1.80;;
21101;SDS011;10709;49.006;12.100;2023-08-07T10:59:10;3.20;;;1.67;;
21101;SDS011;10709;49.006;12.100;2023-08-07T11:04:06;3.37;;;1.63;;
21101;SDS011;10709;49.006;12.100;2023-08-07T11:06:37;3.63;;;1.50;;
21101;SDS011;10709;49.006;12.100;2023-08-07T11:09:06;1.93;;;1.50;;
21101;SDS011;10709;49.006;12.100;2023-08-07T11:11:45;3.13;;;1.57;;
21101;SDS011;10709;49.006;12.100;2023-08-07T11:14:17;3.77;;;1.53;;
21101;SDS011;10709;49.006;12.100;2023-08-07T11:16:45;2.63;;;1.40;;
21101;SDS011;10709;49.006;12.100;2023-08-07T11:19:13;2.90;;;1.37;;
21101;SDS011;10709;49.006;12.100;2023-08-07T11:21:41;2.53;;;1.40;;
21101;SDS011;10709;49.006;12.100;2023-08-07T11:24:12;3.83;;;1.40;;
21101;SDS011;10709;49.006;12.100;2023-08-07T11:26:39;1.50;;;1.20;;
21101;SDS011;10709;49.006;12.100;2023-08-07T11:29:06;2.03;;;1.57;;
21101;SDS011;10709;49.006;12.100;2023-08-07T11:31:33;2.33;;;1.17;;
21101;SDS011;10709;49.006;12.100;2023-08-07T11:34:00;1.80;;;1.50;;
21101;SDS011;10709;49.006;12.100;2023-08-07T11:36:29;1.43;;;1.17;;
21101;SDS011;10709;49.006;12.100;2023-08-07T11:38:56;3.47;;;1.50;;
21101;SDS011;10709;49.006;12.100;2023-08-07T11:41:24;1.30;;;1.20;;
21101;SDS011;10709;49.006;12.100;2023-08-07T11:43:51;1.67;;;1.17;;
21101;SDS011;10709;49.006;12.100;2023-08-07T11:46:18;1.80;;;1.30;;
21101;SDS011;10709;49.006;12.100;2023-08-07T11:48:45;2.43;;;1.17;;
21101;SDS011;10709;49.006;12.100;2023-08-07T11:51:13;1.73;;;1.40;;
21101;SDS011;10709;49.006;12.100;2023-08-07T11:53:40;2.17;;;1.70;;
21101;SDS011;10709;49.006;12.100;2023-08-07T11:56:11;2.77;;;1.60;;
21101;SDS011;10709;49.006;12.100;2023-08-07T11:58:45;1.87;;;1.40;;
21101;SDS011;10709;49.006;12.100;2023-08-07T12:01:15;3.53;;;1.73;;
21101;SDS011;10709;49.006;12.100;2023-08-07T12:06:25;2.70;;;1.60;;
21101;SDS011;10709;49.006;12.100;2023-08-07T12:08:56;2.20;;;1.57;;
21101;SDS011;10709;49.006;12.100;2023-08-07T12:11:24;2.03;;;1.40;;
21101;SDS011;10709;49.006;12.100;2023-08-07T12:13:51;4.37;;;1.30;;
21101;SDS011;10709;49.006;12.100;2023-08-07T12:16:18;2.17;;;1.40;;
21101;SDS011;10709;49.006;12.100;2023-08-07T12:18:46;2.17;;;1.33;;
21101;SDS011;10709;49.006;12.100;2023-08-07T12:21:16;1.73;;;1.20;;
21101;SDS011;10709;49.006;12.100;2023-08-07T12:23:54;1.30;;;1.20;;
21101;SDS011;10709;49.006;12.100;2023-08-07T12:26:22;2.27;;;1.53;;
21101;SDS011;10709;49.006;12.100;2023-08-07T12:28:48;1.37;;;1.20;;
21101;SDS011;10709;49.006;12.100;2023-08-07T12:31:16;2.07;;;1.50;;
21101;SDS011;10709;49.006;12.100;2023-08-07T12:33:44;2.70;;;1.40;;
21101;SDS011;10709;49.006;12.100;2023-08-07T12:36:10;1.53;;;1.17;;
21101;SDS011;10709;49.006;12.100;2023-08-07T12:38:43;4.17;;;1.30;;
21101;SDS011;10709;49.006;12.100;2023-08-07T12:41:09;2.77;;;1.40;;
21101;SDS011;10709;49.006;12.100;2023-08-07T12:43:56;2.37;;;1.40;;
21101;SDS011;10709;49.006;12.100;2023-08-07T12:46:23;2.70;;;1.50;;
21101;SDS011;10709;49.006;12.100;2023-08-07T12:48:53;2.13;;;1.40;;
21101;SDS011;10709;49.006;12.100;2023-08-07T12:51:19;1.37;;;1.27;;
21101;SDS011;10709;49.006;12.100;2023-08-07T12:53:46;1.97;;;1.33;;
21101;SDS011;10709;49.006;12.100;2023-08-07T12:56:13;2.30;;;1.30;;
21101;SDS011;10709;49.006;12.100;2023-08-07T12:58:40;1.73;;;1.30;;
21101;SDS011;10709;49.006;12.100;2023-08-07T13:01:08;3.53;;;1.40;;
21101;SDS011;10709;49.006;12.100;2023-08-07T13:03:36;3.93;;;1.40;;
21101;SDS011;10709;49.006;12.100;2023-08-07T13:06:03;2.17;;;1.20;;
21101;SDS011;10709;49.006;12.100;2023-08-07T13:08:32;2.23;;;1.30;;
21101;SDS011;10709;49.006;12.100;2023-08-07T13:11:01;3.87;;;1.50;;
21101;SDS011;10709;49.006;12.100;2023-08-07T13:13:28;2.53;;;1.70;;
21101;SDS011;10709;49.006;12.100;2023-08-07T13:15:55;2.57;;;1.57;;
21101;SDS011;10709;49.006;12.100;2023-08-07T13:18:24;3.33;;;1.50;;
21101;SDS011;10709;49.006;12.100;2023-08-07T13:20:51;6.07;;;1.33;;
21101;SDS011;10709;49.006;12.100;2023-08-07T13:23:19;4.77;;;1.43;;
21101;SDS011;10709;49.006;12.100;2023-08-07T13:25:45;1.40;;;1.30;;
21101;SDS011;10709;49.006;12.100;2023-08-07T13:28:12;1.73;;;1.30;;
21101;SDS011;10709;49.006;12.100;2023-08-07T13:30:38;5.60;;;1.87;;
21101;SDS011;10709;49.006;12.100;2023-08-07T13:33:05;2.70;;;1.50;;
21101;SDS011;10709;49.006;12.100;2023-08-07T13:35:32;2.60;;;1.50;;
21101;SDS011;10709;49.006;12.100;2023-08-07T13:37:59;1.60;;;1.20;;
21101;SDS011;10709;49.006;12.100;2023-08-07T13:40:26;3.00;;;1.30;;
21101;SDS011;10709;49.006;12.100;2023-08-07T13:42:53;2.70;;;1.60;;
21101;SDS011;10709;49.006;12.100;2023-08-07T13:45:20;3.07;;;1.43;;
21101;SDS011;10709;49.006;12.100;2023-08-07T13:47:47;1.33;;;1.23;;
21101;SDS011;10709;49.006;12.100;2023-08-07T13:50:13;2.20;;;1.40;;
21101;SDS011;10709;49.006;12.100;2023-08-07T13:52:43;2.30;;;1.50;;
21101;SDS011;10709;49.006;12.100;2023-08-07T13:55:12;2.37;;;1.40;;
21101;SDS011;10709;49.006;12.100;2023-08-07T13:57:39;3.00;;;1.57;;
21101;SDS011;10709;49.006;12.100;2023-08-07T14:00:05;2.70;;;1.40;;
21101;SDS011;10709;49.006;12.100;2023-08-07T14:02:34;3.10;;;1.60;;
21101;SDS011;10709;49.006;12.100;2023-08-07T14:05:02;2.07;;;1.30;;
21101;SDS011;10709;49.006;12.100;2023-08-07T14:07:30;3.23;;;1.63;;
21101;SDS011;10709;49.006;12.100;2023-08-07T14:09:57;1.57;;;1.10;;
21101;SDS011;10709;49.006;12.100;2023-08-07T14:12:24;1.57;;;1.20;;
21101;SDS011;10709;49.006;12.100;2023-08-07T14:14:50;2.00;;;1.30;;
21101;SDS011;10709;49.006;12.100;2023-08-07T14:17:20;2.90;;;1.20;;
21101;SDS011;10709;49.006;12.100;2023-08-07T14:19:47;4.33;;;1.50;;
21101;SDS011;10709;49.006;12.100;2023-08-07T14:22:14;1.67;;;1.10;;
21101;SDS011;10709;49.006;12.100;2023-08-07T14:24:40;3.23;;;1.37;;
21101;SDS011;10709;49.006;12.100;2023-08-07T14:27:07;3.40;;;1.10;;
21101;SDS011;10709;49.006;12.100;2023-08-07T14:29:33;2.70;;;1.30;;
21101;SDS011;10709;49.006;12.100;2023-08-07T14:32:00;4.13;;;1.80;;
21101;SDS011;10709;49.006;12.100;2023-08-07T14:34:28;3.77;;;1.30;;
21101;SDS011;10709;49.006;12.100;2023-08-07T14:36:55;3.70;;;1.40;;
21101;SDS011;10709;49.006;12.100;2023-08-07T14:39:21;3.63;;;1.40;;
21101;SDS011;10709;49.006;12.100;2023-08-07T14:41:50;3.77;;;1.23;;
21101;SDS011;10709;49.006;12.100;2023-08-07T14:44:19;1.83;;;1.10;;
21101;SDS011;10709;49.006;12.100;2023-08-07T14:46:46;5.20;;;1.20;;
21101;SDS011;10709;49.006;12.100;2023-08-07T14:49:13;3.30;;;1.17;;